sensor_id;sensor_type;location;lat;lon;timestamp;P1;durP1;ratioP1;P2;durP2;ratioP2
37859;SDS011;23698;52.014;5.190;2023-04-16T00:00:15;7.05;;;2.50;;
37859;SDS011;23698;52.014;5.190;2023-04-16T00:03:01;8.85;;;2.45;;
37859;SDS011;23698;52.014;5.190;2023-04-16T00:05:48;8.55;;;2.30;;
37859;SDS011;23698;52.014;5.190;2023-04-16T00:08:34;5.40;;;1.90;;
37859;SDS011;23698;52.014;5.190;2023-04-16T00:11:22;8.02;;;2.10;;
37859;SDS011;23698;52.014;5.190;2023-04-16T00:14:08;8.95;;;3.00;;
37859;SDS011;23698;52.014;5.190;2023-04-16T00:16:55;7.30;;;1.77;;
37859;SDS011;23698;52.014;5.190;2023-04-16T00:19:41;7.03;;;1.90;;
37859;SDS011;23698;52.014;5.190;2023-04-16T00:22:27;4.00;;;2.15;;
37859;SDS011;23698;52.014;5.190;2023-04-16T00:25:14;4.55;;;1.85;;
37859;SDS011;23698;52.014;5.190;2023-04-16T00:28:01;6.65;;;2.13;;
37859;SDS011;23698;52.014;5.190;2023-04-16T00:30:47;6.20;;;1.70;;
37859;SDS011;23698;52.014;5.190;2023-04-16T00:33:34;4.38;;;1.48;;
37859;SDS011;23698;52.014;5.190;2023-04-16T00:36:21;5.47;;;1.85;;
37859;SDS011;23698;52.014;5.190;2023-04-16T00:39:08;7.30;;;1.83;;
37859;SDS011;23698;52.014;5.190;2023-04-16T00:41:55;4.43;;;1.50;;
37859;SDS011;23698;52.014;5.190;2023-04-16T00:44:42;6.50;;;1.85;;
37859;SDS011;23698;52.014;5.190;2023-04-16T00:47:29;6.90;;;1.83;;
37859;SDS011;23698;52.014;5.190;2023-04-16T00:50:16;8.48;;;2.08;;
37859;SDS011;23698;52.014;5.190;2023-04-16T00:53:02;10.05;;;1.80;;
37859;SDS011;23698;52.014;5.190;2023-04-16T00:55:48;7.18;;;2.00;;
37859;SDS011;23698;52.014;5.190;2023-04-16T00:58:35;7.57;;;2.00;;
37859;SDS011;23698;52.014;5.190;2023-04-16T01:01:23;6.63;;;2.50;;
37859;SDS011;23698;52.014;5.190;2023-04-16T01:04:09;6.82;;;1.95;;
37859;SDS011;23698;52.014;5.190;2023-04-16T01:06:56;5.18;;;2.08;;
37859;SDS011;23698;52.014;5.190;2023-04-16T01:09:42;6.38;;;1.95;;
37859;SDS011;23698;52.014;5.190;2023-04-16T01:12:29;9.75;;;2.67;;
37859;SDS011;23698;52.014;5.190;2023-04-16T01:15:16;9.13;;;2.88;;
37859;SDS011;23698;52.014;5.190;2023-04-16T01:18:11;8.63;;;2.30;;
37859;SDS011;23698;52.014;5.190;2023-04-16T01:21:00;5.43;;;2.50;;
37859;SDS011;23698;52.014;5.190;2023-04-16T01:23:46;9.27;;;2.85;;
37859;SDS011;23698;52.014;5.190;2023-04-16T01:26:32;5.70;;;2.60;;
37859;SDS011;23698;52.014;5.190;2023-04-16T01:29:19;5.25;;;2.72;;
37859;SDS011;23698;52.014;5.190;2023-04-16T01:32:06;7.57;;;3.00;;
37859;SDS011;23698;52.014;5.190;2023-04-16T01:34:56;10.32;;;3.55;;
37859;SDS011;23698;52.014;5.190;2023-04-16T01:37:43;10.82;;;4.65;;
37859;SDS011;23698;52.014;5.190;2023-04-16T01:40:30;10.93;;;4.20;;
37859;SDS011;23698;52.014;5.190;2023-04-16T01:43:16;9.60;;;4.40;;
37859;SDS011;23698;52.014;5.190;2023-04-16T01:46:12;11.27;;;4.70;;
37859;SDS011;23698;52.014;5.190;2023-04-16T01:49:03;11.10;;;4.15;;
37859;SDS011;23698;52.014;5.190;2023-04-16T01:51:51;16.10;;;4.63;;
37859;SDS011;23698;52.014;5.190;2023-04-16T01:54:38;8.80;;;4.30;;
37859;SDS011;23698;52.014;5.190;2023-04-16T01:57:25;9.32;;;3.72;;
37859;SDS011;23698;52.014;5.190;2023-04-16T02:00:11;7.80;;;4.15;;
37859;SDS011;23698;52.014;5.190;2023-04-16T02:03:07;8.57;;;4.25;;
37859;SDS011;23698;52.014;5.190;2023-04-16T02:05:53;12.18;;;4.55;;
37859;SDS011;23698;52.014;5.190;2023-04-16T02:08:39;12.90;;;5.35;;
37859;SDS011;23698;52.014;5.190;2023-04-16T02:11:27;11.02;;;5.05;;
37859;SDS011;23698;52.014;5.190;2023-04-16T02:14:14;11.32;;;5.05;;
37859;SDS011;23698;52.014;5.190;2023-04-16T02:17:01;12.13;;;5.07;;
37859;SDS011;23698;52.014;5.190;2023-04-16T02:19:54;11.82;;;4.20;;
37859;SDS011;23698;52.014;5.190;2023-04-16T02:22:41;10.27;;;4.90;;
37859;SDS011;23698;52.014;5.190;2023-04-16T02:25:30;8.20;;;4.10;;
37859;SDS011;23698;52.014;5.190;2023-04-16T02:28:19;7.97;;;4.47;;
37859;SDS011;23698;52.014;5.190;2023-04-16T02:31:05;9.10;;;4.78;;
37859;SDS011;23698;52.014;5.190;2023-04-16T02:33:57;7.35;;;3.97;;
37859;SDS011;23698;52.014;5.190;2023-04-16T02:36:44;10.65;;;4.60;;
37859;SDS011;23698;52.014;5.190;2023-04-16T02:39:30;15.18;;;4.47;;
37859;SDS011;23698;52.014;5.190;2023-04-16T02:42:16;7.53;;;3.95;;
37859;SDS011;23698;52.014;5.190;2023-04-16T02:45:04;10.07;;;3.90;;
37859;SDS011;23698;52.014;5.190;2023-04-16T02:47:51;7.97;;;3.47;;
37859;SDS011;23698;52.014;5.190;2023-04-16T02:50:38;12.82;;;4.28;;
37859;SDS011;23698;52.014;5.190;2023-04-16T02:53:24;14.23;;;4.65;;
37859;SDS011;23698;52.014;5.190;2023-04-16T02:56:11;9.43;;;3.92;;
37859;SDS011;23698;52.014;5.190;2023-04-16T02:58:57;9.93;;;4.03;;
37859;SDS011;23698;52.014;5.190;2023-04-16T03:01:47;12.80;;;4.70;;
37859;SDS011;23698;52.014;5.190;2023-04-16T03:04:34;13.55;;;4.53;;
37859;SDS011;23698;52.014;5.190;2023-04-16T03:07:20;6.75;;;4.35;;
37859;SDS011;23698;52.014;5.190;2023-04-16T03:10:07;9.82;;;4.40;;
37859;SDS011;23698;52.014;5.190;2023-04-16T03:12:53;10.80;;;4.95;;
37859;SDS011;23698;52.014;5.190;2023-04-16T03:15:40;12.65;;;4.53;;
37859;SDS011;23698;52.014;5.190;2023-04-16T03:18:28;11.82;;;5.60;;
37859;SDS011;23698;52.014;5.190;2023-04-16T03:21:14;13.90;;;5.93;;
37859;SDS011;23698;52.014;5.190;2023-04-16T03:24:00;12.05;;;4.93;;
37859;SDS011;23698;52.014;5.190;2023-04-16T03:26:47;13.82;;;5.63;;
37859;SDS011;23698;52.014;5.190;2023-04-16T03:29:35;16.55;;;5.15;;
37859;SDS011;23698;52.014;5.190;2023-04-16T03:32:23;15.40;;;5.70;;
37859;SDS011;23698;52.014;5.190;2023-04-16T03:35:11;11.70;;;5.32;;
37859;SDS011;23698;52.014;5.190;2023-04-16T03:37:57;12.38;;;6.00;;
37859;SDS011;23698;52.014;5.190;2023-04-16T03:40:43;13.00;;;5.80;;
37859;SDS011;23698;52.014;5.190;2023-04-16T03:43:32;14.18;;;5.88;;
37859;SDS011;23698;52.014;5.190;2023-04-16T03:46:18;10.40;;;5.22;;
37859;SDS011;23698;52.014;5.190;2023-04-16T03:49:04;15.95;;;5.75;;
37859;SDS011;23698;52.014;5.190;2023-04-16T03:51:52;16.85;;;6.28;;
37859;SDS011;23698;52.014;5.190;2023-04-16T03:54:38;13.35;;;5.85;;
37859;SDS011;23698;52.014;5.190;2023-04-16T03:57:36;12.55;;;6.35;;
37859;SDS011;23698;52.014;5.190;2023-04-16T04:00:27;13.82;;;7.40;;
37859;SDS011;23698;52.014;5.190;2023-04-16T04:03:22;19.98;;;7.63;;
37859;SDS011;23698;52.014;5.190;2023-04-16T04:06:11;16.38;;;6.38;;
37859;SDS011;23698;52.014;5.190;2023-04-16T04:08:59;15.73;;;7.57;;
37859;SDS011;23698;52.014;5.190;2023-04-16T04:11:46;17.10;;;8.20;;
37859;SDS011;23698;52.014;5.190;2023-04-16T04:14:32;14.27;;;7.80;;
37859;SDS011;23698;52.014;5.190;2023-04-16T04:17:25;18.38;;;7.88;;
37859;SDS011;23698;52.014;5.190;2023-04-16T04:20:11;16.05;;;7.93;;
37859;SDS011;23698;52.014;5.190;2023-04-16T04:23:01;14.75;;;8.23;;
37859;SDS011;23698;52.014;5.190;2023-04-16T04:25:48;16.33;;;8.32;;
37859;SDS011;23698;52.014;5.190;2023-04-16T04:28:35;16.45;;;9.30;;
37859;SDS011;23698;52.014;5.190;2023-04-16T04:31:22;22.13;;;8.32;;
37859;SDS011;23698;52.014;5.190;2023-04-16T04:34:08;19.85;;;8.30;;
37859;SDS011;23698;52.014;5.190;2023-04-16T04:36:54;18.88;;;8.60;;
37859;SDS011;23698;52.014;5.190;2023-04-16T04:39:45;17.67;;;8.85;;
37859;SDS011;23698;52.014;5.190;2023-04-16T04:42:33;24.00;;;9.73;;
37859;SDS011;23698;52.014;5.190;2023-04-16T04:45:20;26.48;;;9.60;;
37859;SDS011;23698;52.014;5.190;2023-04-16T04:48:10;19.38;;;8.57;;
37859;SDS011;23698;52.014;5.190;2023-04-16T04:50:56;22.63;;;9.38;;
37859;SDS011;23698;52.014;5.190;2023-04-16T04:53:42;24.73;;;9.75;;
37859;SDS011;23698;52.014;5.190;2023-04-16T04:56:28;22.73;;;9.63;;
37859;SDS011;23698;52.014;5.190;2023-04-16T04:59:16;27.35;;;10.57;;
37859;SDS011;23698;52.014;5.190;2023-04-16T05:02:02;27.27;;;11.07;;
37859;SDS011;23698;52.014;5.190;2023-04-16T05:04:49;29.63;;;10.63;;
37859;SDS011;23698;52.014;5.190;2023-04-16T05:07:35;28.58;;;10.82;;
37859;SDS011;23698;52.014;5.190;2023-04-16T05:10:21;30.67;;;12.57;;
37859;SDS011;23698;52.014;5.190;2023-04-16T05:13:07;33.45;;;12.13;;
37859;SDS011;23698;52.014;5.190;2023-04-16T05:15:55;33.75;;;12.90;;
37859;SDS011;23698;52.014;5.190;2023-04-16T05:18:41;34.25;;;15.15;;
37859;SDS011;23698;52.014;5.190;2023-04-16T05:21:27;30.30;;;13.38;;
37859;SDS011;23698;52.014;5.190;2023-04-16T05:24:14;36.25;;;14.32;;
37859;SDS011;23698;52.014;5.190;2023-04-16T05:27:00;31.60;;;14.65;;
37859;SDS011;23698;52.014;5.190;2023-04-16T05:29:47;35.47;;;16.20;;
37859;SDS011;23698;52.014;5.190;2023-04-16T05:32:35;48.25;;;15.60;;
37859;SDS011;23698;52.014;5.190;2023-04-16T05:35:21;52.75;;;16.33;;
37859;SDS011;23698;52.014;5.190;2023-04-16T05:38:07;44.08;;;16.58;;
37859;SDS011;23698;52.014;5.190;2023-04-16T05:40:54;45.72;;;15.57;;
37859;SDS011;23698;52.014;5.190;2023-04-16T05:43:40;41.03;;;16.58;;
37859;SDS011;23698;52.014;5.190;2023-04-16T05:46:27;40.55;;;15.95;;
37859;SDS011;23698;52.014;5.190;2023-04-16T05:49:15;44.10;;;16.65;;
37859;SDS011;23698;52.014;5.190;2023-04-16T05:52:02;43.33;;;16.23;;
37859;SDS011;23698;52.014;5.190;2023-04-16T05:54:49;41.15;;;17.10;;
37859;SDS011;23698;52.014;5.190;2023-04-16T05:57:35;33.85;;;15.57;;
37859;SDS011;23698;52.014;5.190;2023-04-16T06:00:21;39.58;;;16.38;;
37859;SDS011;23698;52.014;5.190;2023-04-16T06:03:08;41.55;;;16.83;;
37859;SDS011;23698;52.014;5.190;2023-04-16T06:05:56;42.35;;;14.98;;
37859;SDS011;23698;52.014;5.190;2023-04-16T06:08:43;43.13;;;17.35;;
37859;SDS011;23698;52.014;5.190;2023-04-16T06:11:29;38.63;;;15.55;;
37859;SDS011;23698;52.014;5.190;2023-04-16T06:14:18;40.50;;;15.38;;
37859;SDS011;23698;52.014;5.190;2023-04-16T06:17:04;40.03;;;15.63;;
37859;SDS011;23698;52.014;5.190;2023-04-16T06:19:50;47.33;;;15.50;;
37859;SDS011;23698;52.014;5.190;2023-04-16T06:22:38;44.10;;;16.83;;
37859;SDS011;23698;52.014;5.190;2023-04-16T06:25:24;48.55;;;16.58;;
37859;SDS011;23698;52.014;5.190;2023-04-16T06:28:10;41.88;;;15.32;;
37859;SDS011;23698;52.014;5.190;2023-04-16T06:30:56;37.88;;;15.77;;
37859;SDS011;23698;52.014;5.190;2023-04-16T06:33:43;38.10;;;16.15;;
37859;SDS011;23698;52.014;5.190;2023-04-16T06:36:29;32.67;;;14.38;;
37859;SDS011;23698;52.014;5.190;2023-04-16T06:39:17;41.60;;;16.67;;
37859;SDS011;23698;52.014;5.190;2023-04-16T06:42:05;40.20;;;14.88;;
37859;SDS011;23698;52.014;5.190;2023-04-16T06:44:51;38.13;;;15.05;;
37859;SDS011;23698;52.014;5.190;2023-04-16T06:47:37;34.80;;;14.23;;
37859;SDS011;23698;52.014;5.190;2023-04-16T06:50:24;43.13;;;14.00;;
37859;SDS011;23698;52.014;5.190;2023-04-16T06:53:11;32.33;;;14.52;;
37859;SDS011;23698;52.014;5.190;2023-04-16T06:55:59;36.13;;;13.27;;
37859;SDS011;23698;52.014;5.190;2023-04-16T06:58:45;26.35;;;12.98;;
37859;SDS011;23698;52.014;5.190;2023-04-16T07:01:31;27.80;;;12.45;;
37859;SDS011;23698;52.014;5.190;2023-04-16T07:04:18;27.77;;;12.98;;
37859;SDS011;23698;52.014;5.190;2023-04-16T07:07:05;34.28;;;12.57;;
37859;SDS011;23698;52.014;5.190;2023-04-16T07:09:52;27.38;;;12.90;;
37859;SDS011;23698;52.014;5.190;2023-04-16T07:12:42;29.42;;;13.05;;
37859;SDS011;23698;52.014;5.190;2023-04-16T07:15:28;32.17;;;13.07;;
37859;SDS011;23698;52.014;5.190;2023-04-16T07:18:15;25.38;;;12.38;;
37859;SDS011;23698;52.014;5.190;2023-04-16T07:21:04;23.17;;;12.47;;
37859;SDS011;23698;52.014;5.190;2023-04-16T07:23:53;28.65;;;12.40;;
37859;SDS011;23698;52.014;5.190;2023-04-16T07:26:39;29.25;;;12.35;;
37859;SDS011;23698;52.014;5.190;2023-04-16T07:29:30;24.92;;;12.05;;
37859;SDS011;23698;52.014;5.190;2023-04-16T07:32:16;21.27;;;10.77;;
37859;SDS011;23698;52.014;5.190;2023-04-16T07:35:03;24.83;;;11.88;;
37859;SDS011;23698;52.014;5.190;2023-04-16T07:37:50;27.63;;;11.45;;
37859;SDS011;23698;52.014;5.190;2023-04-16T07:40:36;27.70;;;11.35;;
37859;SDS011;23698;52.014;5.190;2023-04-16T07:43:23;27.38;;;11.88;;
37859;SDS011;23698;52.014;5.190;2023-04-16T07:46:13;25.20;;;11.07;;
37859;SDS011;23698;52.014;5.190;2023-04-16T07:48:59;28.50;;;11.85;;
37859;SDS011;23698;52.014;5.190;2023-04-16T07:51:46;24.13;;;12.30;;
37859;SDS011;23698;52.014;5.190;2023-04-16T07:54:35;32.78;;;12.68;;
37859;SDS011;23698;52.014;5.190;2023-04-16T08:00:13;24.23;;;11.70;;
37859;SDS011;23698;52.014;5.190;2023-04-16T08:03:01;23.83;;;11.55;;
37859;SDS011;23698;52.014;5.190;2023-04-16T08:05:49;29.17;;;12.20;;
37859;SDS011;23698;52.014;5.190;2023-04-16T08:08:36;25.17;;;12.05;;
37859;SDS011;23698;52.014;5.190;2023-04-16T08:11:27;23.77;;;12.05;;
37859;SDS011;23698;52.014;5.190;2023-04-16T08:14:14;27.50;;;12.10;;
37859;SDS011;23698;52.014;5.190;2023-04-16T08:17:00;20.58;;;10.45;;
37859;SDS011;23698;52.014;5.190;2023-04-16T08:19:49;21.25;;;10.48;;
37859;SDS011;23698;52.014;5.190;2023-04-16T08:22:37;22.50;;;10.65;;
37859;SDS011;23698;52.014;5.190;2023-04-16T08:25:24;23.73;;;10.38;;
37859;SDS011;23698;52.014;5.190;2023-04-16T08:28:15;17.63;;;9.93;;
37859;SDS011;23698;52.014;5.190;2023-04-16T08:31:01;18.20;;;9.55;;
37859;SDS011;23698;52.014;5.190;2023-04-16T08:33:50;17.50;;;9.32;;
37859;SDS011;23698;52.014;5.190;2023-04-16T08:36:40;20.98;;;9.68;;
37859;SDS011;23698;52.014;5.190;2023-04-16T08:39:26;15.98;;;9.55;;
37859;SDS011;23698;52.014;5.190;2023-04-16T08:42:20;17.02;;;9.23;;
37859;SDS011;23698;52.014;5.190;2023-04-16T08:45:16;19.85;;;10.15;;
37859;SDS011;23698;52.014;5.190;2023-04-16T08:48:05;16.83;;;9.13;;
37859;SDS011;23698;52.014;5.190;2023-04-16T08:50:52;17.38;;;9.75;;
37859;SDS011;23698;52.014;5.190;2023-04-16T08:53:48;18.13;;;9.70;;
37859;SDS011;23698;52.014;5.190;2023-04-16T08:56:37;16.77;;;10.25;;
37859;SDS011;23698;52.014;5.190;2023-04-16T08:59:27;18.08;;;9.15;;
37859;SDS011;23698;52.014;5.190;2023-04-16T09:02:14;17.60;;;9.75;;
37859;SDS011;23698;52.014;5.190;2023-04-16T09:05:05;18.92;;;10.60;;
37859;SDS011;23698;52.014;5.190;2023-04-16T09:07:53;15.63;;;9.35;;
37859;SDS011;23698;52.014;5.190;2023-04-16T09:10:41;18.20;;;9.77;;
37859;SDS011;23698;52.014;5.190;2023-04-16T09:13:29;19.10;;;8.65;;
37859;SDS011;23698;52.014;5.190;2023-04-16T09:16:16;17.50;;;8.55;;
37859;SDS011;23698;52.014;5.190;2023-04-16T09:19:03;23.90;;;8.02;;
37859;SDS011;23698;52.014;5.190;2023-04-16T09:21:53;16.48;;;7.97;;
37859;SDS011;23698;52.014;5.190;2023-04-16T09:24:39;16.27;;;8.18;;
37859;SDS011;23698;52.014;5.190;2023-04-16T09:27:27;14.50;;;7.25;;
37859;SDS011;23698;52.014;5.190;2023-04-16T09:30:20;11.32;;;7.57;;
37859;SDS011;23698;52.014;5.190;2023-04-16T09:33:12;19.95;;;7.68;;
37859;SDS011;23698;52.014;5.190;2023-04-16T09:36:00;14.48;;;7.63;;
37859;SDS011;23698;52.014;5.190;2023-04-16T09:38:48;16.38;;;7.00;;
37859;SDS011;23698;52.014;5.190;2023-04-16T09:41:36;16.15;;;7.35;;
37859;SDS011;23698;52.014;5.190;2023-04-16T09:44:34;13.00;;;6.83;;
37859;SDS011;23698;52.014;5.190;2023-04-16T09:47:22;25.98;;;7.85;;
37859;SDS011;23698;52.014;5.190;2023-04-16T09:50:09;14.85;;;7.30;;
37859;SDS011;23698;52.014;5.190;2023-04-16T09:53:03;11.68;;;6.43;;
37859;SDS011;23698;52.014;5.190;2023-04-16T09:55:50;18.67;;;6.90;;
37859;SDS011;23698;52.014;5.190;2023-04-16T09:58:37;14.23;;;6.68;;
37859;SDS011;23698;52.014;5.190;2023-04-16T10:01:27;15.05;;;6.95;;
37859;SDS011;23698;52.014;5.190;2023-04-16T10:04:17;13.30;;;6.30;;
37859;SDS011;23698;52.014;5.190;2023-04-16T10:07:04;15.77;;;6.47;;
37859;SDS011;23698;52.014;5.190;2023-04-16T10:09:51;13.07;;;6.85;;
37859;SDS011;23698;52.014;5.190;2023-04-16T10:12:39;15.45;;;6.32;;
37859;SDS011;23698;52.014;5.190;2023-04-16T10:15:27;10.65;;;5.57;;
37859;SDS011;23698;52.014;5.190;2023-04-16T10:18:18;12.05;;;5.57;;
37859;SDS011;23698;52.014;5.190;2023-04-16T10:21:07;10.88;;;5.63;;
37859;SDS011;23698;52.014;5.190;2023-04-16T10:23:57;13.03;;;5.53;;
37859;SDS011;23698;52.014;5.190;2023-04-16T10:26:43;11.38;;;5.80;;
37859;SDS011;23698;52.014;5.190;2023-04-16T10:29:30;9.90;;;5.07;;
37859;SDS011;23698;52.014;5.190;2023-04-16T10:32:20;10.00;;;5.53;;
37859;SDS011;23698;52.014;5.190;2023-04-16T10:35:16;11.05;;;5.45;;
37859;SDS011;23698;52.014;5.190;2023-04-16T10:41:16;11.88;;;5.35;;
37859;SDS011;23698;52.014;5.190;2023-04-16T10:44:05;8.38;;;5.20;;
37859;SDS011;23698;52.014;5.190;2023-04-16T10:46:54;8.63;;;5.33;;
37859;SDS011;23698;52.014;5.190;2023-04-16T10:49:44;9.55;;;4.90;;
37859;SDS011;23698;52.014;5.190;2023-04-16T10:52:34;8.77;;;4.72;;
37859;SDS011;23698;52.014;5.190;2023-04-16T10:55:20;13.38;;;5.18;;
37859;SDS011;23698;52.014;5.190;2023-04-16T11:01:16;7.90;;;5.43;;
37859;SDS011;23698;52.014;5.190;2023-04-16T11:07:16;13.65;;;5.47;;
37859;SDS011;23698;52.014;5.190;2023-04-16T11:10:10;11.30;;;5.75;;
37859;SDS011;23698;52.014;5.190;2023-04-16T11:12:59;10.57;;;5.53;;
37859;SDS011;23698;52.014;5.190;2023-04-16T11:15:48;14.73;;;5.88;;
37859;SDS011;23698;52.014;5.190;2023-04-16T11:18:37;10.25;;;5.57;;
37859;SDS011;23698;52.014;5.190;2023-04-16T11:21:35;10.60;;;6.10;;
37859;SDS011;23698;52.014;5.190;2023-04-16T11:24:22;12.75;;;4.75;;
37859;SDS011;23698;52.014;5.190;2023-04-16T11:27:14;11.68;;;6.30;;
37859;SDS011;23698;52.014;5.190;2023-04-16T11:30:02;11.52;;;6.25;;
37859;SDS011;23698;52.014;5.190;2023-04-16T11:32:49;10.90;;;5.88;;
37859;SDS011;23698;52.014;5.190;2023-04-16T11:35:36;11.50;;;5.47;;
37859;SDS011;23698;52.014;5.190;2023-04-16T11:38:32;13.30;;;5.60;;
37859;SDS011;23698;52.014;5.190;2023-04-16T11:41:23;15.00;;;6.38;;
37859;SDS011;23698;52.014;5.190;2023-04-16T11:44:17;12.90;;;5.82;;
37859;SDS011;23698;52.014;5.190;2023-04-16T11:47:04;18.70;;;6.93;;
37859;SDS011;23698;52.014;5.190;2023-04-16T11:49:52;24.40;;;7.88;;
37859;SDS011;23698;52.014;5.190;2023-04-16T11:52:39;18.75;;;7.80;;
37859;SDS011;23698;52.014;5.190;2023-04-16T11:55:26;16.63;;;7.53;;
37859;SDS011;23698;52.014;5.190;2023-04-16T11:58:12;21.02;;;8.32;;
37859;SDS011;23698;52.014;5.190;2023-04-16T12:01:03;16.70;;;7.72;;
37859;SDS011;23698;52.014;5.190;2023-04-16T12:03:49;15.60;;;7.38;;
37859;SDS011;23698;52.014;5.190;2023-04-16T12:07:06;18.13;;;8.05;;
37859;SDS011;23698;52.014;5.190;2023-04-16T12:10:03;22.90;;;8.65;;
37859;SDS011;23698;52.014;5.190;2023-04-16T12:12:50;19.75;;;9.00;;
37859;SDS011;23698;52.014;5.190;2023-04-16T12:15:43;23.33;;;8.43;;
37859;SDS011;23698;52.014;5.190;2023-04-16T12:18:32;17.02;;;7.70;;
37859;SDS011;23698;52.014;5.190;2023-04-16T12:21:18;21.33;;;7.72;;
37859;SDS011;23698;52.014;5.190;2023-04-16T12:24:05;23.02;;;8.98;;
37859;SDS011;23698;52.014;5.190;2023-04-16T12:26:53;24.05;;;9.65;;
37859;SDS011;23698;52.014;5.190;2023-04-16T12:29:41;19.92;;;7.97;;
37859;SDS011;23698;52.014;5.190;2023-04-16T12:32:27;21.77;;;9.07;;
37859;SDS011;23698;52.014;5.190;2023-04-16T12:35:28;22.10;;;9.85;;
37859;SDS011;23698;52.014;5.190;2023-04-16T12:38:16;24.10;;;8.90;;
37859;SDS011;23698;52.014;5.190;2023-04-16T12:41:02;26.42;;;10.80;;
37859;SDS011;23698;52.014;5.190;2023-04-16T12:43:50;21.98;;;9.80;;
37859;SDS011;23698;52.014;5.190;2023-04-16T12:58:39;35.10;;;9.68;;
37859;SDS011;23698;52.014;5.190;2023-04-16T13:01:25;18.02;;;9.63;;
37859;SDS011;23698;52.014;5.190;2023-04-16T13:04:13;18.05;;;9.07;;
37859;SDS011;23698;52.014;5.190;2023-04-16T13:07:12;22.38;;;10.48;;
37859;SDS011;23698;52.014;5.190;2023-04-16T13:11:00;21.17;;;9.63;;
37859;SDS011;23698;52.014;5.190;2023-04-16T13:13:51;22.25;;;9.38;;
37859;SDS011;23698;52.014;5.190;2023-04-16T13:16:37;19.92;;;9.15;;
37859;SDS011;23698;52.014;5.190;2023-04-16T13:19:24;20.77;;;8.75;;
37859;SDS011;23698;52.014;5.190;2023-04-16T13:22:10;17.27;;;8.70;;
37859;SDS011;23698;52.014;5.190;2023-04-16T13:24:57;19.33;;;9.27;;
37859;SDS011;23698;52.014;5.190;2023-04-16T13:27:43;17.80;;;9.38;;
37859;SDS011;23698;52.014;5.190;2023-04-16T13:30:31;16.05;;;9.00;;
37859;SDS011;23698;52.014;5.190;2023-04-16T13:33:18;18.55;;;9.75;;
37859;SDS011;23698;52.014;5.190;2023-04-16T13:36:05;19.25;;;9.45;;
37859;SDS011;23698;52.014;5.190;2023-04-16T13:38:52;19.63;;;9.70;;
37859;SDS011;23698;52.014;5.190;2023-04-16T13:41:38;19.35;;;9.15;;
37859;SDS011;23698;52.014;5.190;2023-04-16T13:44:25;18.00;;;9.73;;
37859;SDS011;23698;52.014;5.190;2023-04-16T13:47:13;16.15;;;9.25;;
37859;SDS011;23698;52.014;5.190;2023-04-16T13:49:59;16.15;;;10.70;;
37859;SDS011;23698;52.014;5.190;2023-04-16T13:52:46;21.20;;;9.63;;
37859;SDS011;23698;52.014;5.190;2023-04-16T13:55:32;17.83;;;9.43;;
37859;SDS011;23698;52.014;5.190;2023-04-16T13:58:22;18.92;;;9.93;;
37859;SDS011;23698;52.014;5.190;2023-04-16T14:01:10;22.70;;;9.63;;
37859;SDS011;23698;52.014;5.190;2023-04-16T14:03:59;20.15;;;10.13;;
37859;SDS011;23698;52.014;5.190;2023-04-16T14:06:50;19.95;;;9.48;;
37859;SDS011;23698;52.014;5.190;2023-04-16T14:09:37;20.02;;;9.48;;
37859;SDS011;23698;52.014;5.190;2023-04-16T14:12:23;21.02;;;9.85;;
37859;SDS011;23698;52.014;5.190;2023-04-16T14:15:10;15.90;;;9.57;;
37859;SDS011;23698;52.014;5.190;2023-04-16T14:17:58;14.43;;;9.82;;
37859;SDS011;23698;52.014;5.190;2023-04-16T14:20:47;20.77;;;9.13;;
37859;SDS011;23698;52.014;5.190;2023-04-16T14:23:33;18.40;;;9.23;;
37859;SDS011;23698;52.014;5.190;2023-04-16T14:26:20;18.60;;;9.63;;
37859;SDS011;23698;52.014;5.190;2023-04-16T14:29:07;18.65;;;9.75;;
37859;SDS011;23698;52.014;5.190;2023-04-16T14:31:54;21.20;;;9.75;;
37859;SDS011;23698;52.014;5.190;2023-04-16T14:34:41;20.40;;;9.52;;
37859;SDS011;23698;52.014;5.190;2023-04-16T14:41:53;21.85;;;11.63;;
37859;SDS011;23698;52.014;5.190;2023-04-16T14:49:24;20.55;;;10.52;;
37859;SDS011;23698;52.014;5.190;2023-04-16T14:53:48;21.70;;;10.57;;
37859;SDS011;23698;52.014;5.190;2023-04-16T14:57:55;21.52;;;10.02;;
37859;SDS011;23698;52.014;5.190;2023-04-16T15:01:08;18.80;;;10.60;;
37859;SDS011;23698;52.014;5.190;2023-04-16T15:04:01;19.20;;;9.48;;
37859;SDS011;23698;52.014;5.190;2023-04-16T15:06:51;22.45;;;9.77;;
37859;SDS011;23698;52.014;5.190;2023-04-16T15:09:47;21.65;;;10.07;;
37859;SDS011;23698;52.014;5.190;2023-04-16T15:12:33;19.73;;;9.18;;
37859;SDS011;23698;52.014;5.190;2023-04-16T15:15:19;17.27;;;9.43;;
37859;SDS011;23698;52.014;5.190;2023-04-16T15:18:12;20.33;;;10.38;;
37859;SDS011;23698;52.014;5.190;2023-04-16T15:21:46;20.98;;;9.32;;
37859;SDS011;23698;52.014;5.190;2023-04-16T15:24:33;25.42;;;10.50;;
37859;SDS011;23698;52.014;5.190;2023-04-16T15:27:23;23.33;;;10.30;;
37859;SDS011;23698;52.014;5.190;2023-04-16T15:30:09;22.67;;;9.93;;
37859;SDS011;23698;52.014;5.190;2023-04-16T15:32:56;19.85;;;10.13;;
37859;SDS011;23698;52.014;5.190;2023-04-16T15:35:43;18.90;;;10.77;;
37859;SDS011;23698;52.014;5.190;2023-04-16T15:38:29;17.80;;;10.32;;
37859;SDS011;23698;52.014;5.190;2023-04-16T15:41:19;17.53;;;10.53;;
37859;SDS011;23698;52.014;5.190;2023-04-16T15:44:06;20.83;;;10.23;;
37859;SDS011;23698;52.014;5.190;2023-04-16T15:46:53;27.63;;;11.55;;
37859;SDS011;23698;52.014;5.190;2023-04-16T15:49:40;23.10;;;10.32;;
37859;SDS011;23698;52.014;5.190;2023-04-16T15:52:27;24.95;;;10.55;;
37859;SDS011;23698;52.014;5.190;2023-04-16T15:55:15;27.65;;;11.77;;
37859;SDS011;23698;52.014;5.190;2023-04-16T15:58:03;24.90;;;11.30;;
37859;SDS011;23698;52.014;5.190;2023-04-16T16:00:51;20.00;;;10.30;;
37859;SDS011;23698;52.014;5.190;2023-04-16T16:03:37;24.63;;;10.50;;
37859;SDS011;23698;52.014;5.190;2023-04-16T16:06:24;31.58;;;15.55;;
37859;SDS011;23698;52.014;5.190;2023-04-16T16:09:11;20.52;;;10.25;;
37859;SDS011;23698;52.014;5.190;2023-04-16T16:11:57;22.23;;;10.48;;
37859;SDS011;23698;52.014;5.190;2023-04-16T16:14:44;20.13;;;10.05;;
37859;SDS011;23698;52.014;5.190;2023-04-16T16:17:32;20.20;;;10.23;;
37859;SDS011;23698;52.014;5.190;2023-04-16T16:20:18;20.42;;;10.05;;
37859;SDS011;23698;52.014;5.190;2023-04-16T16:23:06;22.35;;;10.48;;
37859;SDS011;23698;52.014;5.190;2023-04-16T16:25:52;20.80;;;9.65;;
37859;SDS011;23698;52.014;5.190;2023-04-16T16:28:39;21.95;;;9.85;;
37859;SDS011;23698;52.014;5.190;2023-04-16T16:31:27;18.02;;;9.52;;
37859;SDS011;23698;52.014;5.190;2023-04-16T16:34:15;20.00;;;10.10;;
37859;SDS011;23698;52.014;5.190;2023-04-16T16:37:05;19.85;;;9.00;;
37859;SDS011;23698;52.014;5.190;2023-04-16T16:40:17;20.20;;;9.32;;
37859;SDS011;23698;52.014;5.190;2023-04-16T16:43:03;23.23;;;9.60;;
37859;SDS011;23698;52.014;5.190;2023-04-16T16:45:50;25.92;;;10.30;;
37859;SDS011;23698;52.014;5.190;2023-04-16T16:48:37;37.28;;;17.85;;
37859;SDS011;23698;52.014;5.190;2023-04-16T16:51:24;22.80;;;10.02;;
37859;SDS011;23698;52.014;5.190;2023-04-16T16:54:11;20.30;;;9.80;;
37859;SDS011;23698;52.014;5.190;2023-04-16T16:56:57;21.08;;;10.18;;
37859;SDS011;23698;52.014;5.190;2023-04-16T16:59:44;20.02;;;11.13;;
37859;SDS011;23698;52.014;5.190;2023-04-16T17:02:30;21.38;;;9.73;;
37859;SDS011;23698;52.014;5.190;2023-04-16T17:05:16;17.02;;;10.52;;
37859;SDS011;23698;52.014;5.190;2023-04-16T17:08:05;19.58;;;10.57;;
37859;SDS011;23698;52.014;5.190;2023-04-16T17:10:51;18.90;;;11.10;;
37859;SDS011;23698;52.014;5.190;2023-04-16T17:13:37;17.80;;;10.77;;